Zenith, Illinois
Current Conditions -  °F | °C
As of 3:15 PM on Friday 24 Oct 2014 (Local Time) from KFOA Reporting Station
Clear Clear  
Wind Chill: 69°   Ceiling: Unl
Heat Index: 69°   Visibility: 10mi
Dew Point: 52°   Wind: 3mph
Humidity: 55%   Direction: 250°WSW
Pressure: 30.04"   Gusts: NA
Location:  38.6949°N, 88.6407°W
Report Text: KFOA 242015Z AUTO 25003KT 10SM CLR 21/11 A3004 RMK AO2 T02050112
Loading
Personal Weather Stations






























Interactive Weather Map
Tropical Storm Tracking
New forecast layout! Learn more

10-Day Weather Forecast

Advertisements
Track Severe Weather on mobile